Time;durP1;ratioP1;P1;durP2;ratioP2;P2;SDS_P1;SDS_P2;PMS_P1;PMS_P2;Temp;Humidity;BMP_temperature;BMP_pressure;BME280_temperature;BME280_humidity;BME280_pressure;Samples;Min_cycle;Max_cycle;Signal;HPM_P1;HPM_P2
2022/09/29 00:04:22;;;;;;;1.27;1.00;;;;;;;18.23;96.29;97612.38;4391085;81;28588;-94
2022/09/29 00:10:23;;;;;;;2.92;1.27;;;;;;;18.54;94.46;97618.27;4407935;80;28515;-93
2022/09/29 00:16:25;;;;;;;3.37;1.50;;;;;;;18.53;94.75;97627.02;4406861;79;28509;-91
2022/09/29 00:22:26;;;;;;;2.22;1.60;;;;;;;18.51;94.42;97621.64;4440044;79;28684;-90
2022/09/29 00:28:29;;;;;;;2.12;1.55;;;;;;;18.50;94.13;97623.55;4362394;79;28492;-92
2022/09/29 00:34:30;;;;;;;3.45;2.30;;;;;;;18.37;94.86;97634.80;4399772;81;28508;-92
2022/09/29 00:40:33;;;;;;;5.78;2.90;;;;;;;18.47;92.76;97635.08;4401894;80;28511;-91
2022/09/29 00:46:58;;;;;;;4.08;2.67;;;;;;;18.62;90.66;97642.53;4348032;81;28518;-92
2022/09/29 00:53:01;;;;;;;4.58;3.10;;;;;;;18.94;86.17;97651.34;4397434;80;28471;-92
2022/09/29 00:59:08;;;;;;;7.00;3.80;;;;;;;18.85;85.12;97647.82;4424623;79;28585;-91
2022/09/29 01:05:15;;;;;;;5.70;3.62;;;;;;;18.55;85.73;97653.10;4330803;81;28464;-91
2022/09/29 01:11:19;;;;;;;7.53;3.50;;;;;;;18.30;89.43;97664.41;4434344;79;28488;-92
2022/09/29 01:17:22;;;;;;;5.22;3.35;;;;;;;18.19;88.46;97673.98;4427294;79;28598;-91
2022/09/29 01:23:55;;;;;;;6.55;3.58;;;;;;;17.98;90.14;97681.31;4388224;80;28478;-93
2022/09/29 01:30:12;;;;;;;8.05;3.80;;;;;;;17.96;89.32;97693.03;4406701;79;28557;-94
2022/09/29 01:36:54;;;;;;;7.25;4.05;;;;;;;17.94;90.17;97706.14;4349225;80;28533;-92
2022/09/29 01:43:19;;;;;;;6.97;4.00;;;;;;;18.28;88.57;97701.20;4321148;81;28463;-92
2022/09/29 01:49:24;;;;;;;8.10;4.50;;;;;;;17.94;91.65;97698.80;4362412;80;28538;-92
2022/09/29 01:55:30;;;;;;;9.45;4.95;;;;;;;17.88;93.53;97706.05;4358922;80;28509;-94
2022/09/29 02:01:36;;;;;;;9.93;4.60;;;;;;;17.77;92.88;97705.50;4342566;81;28802;-94
2022/09/29 02:07:42;;;;;;;9.13;5.20;;;;;;;17.73;92.68;97701.81;4363196;80;50436;-94
2022/09/29 02:13:59;;;;;;;7.87;4.33;;;;;;;17.82;93.16;97713.55;4321884;82;28547;-94
2022/09/29 02:20:01;;;;;;;9.83;4.65;;;;;;;17.75;92.65;97721.33;4362679;80;28465;-93
2022/09/29 02:26:03;;;;;;;7.40;4.47;;;;;;;17.75;91.87;97719.39;4358769;80;28470;-94
2022/09/29 02:32:08;;;;;;;8.60;4.70;;;;;;;17.63;92.41;97717.81;4342572;81;28515;-95
2022/09/29 02:38:21;;;;;;;7.30;4.25;;;;;;;17.60;92.68;97727.95;4362776;80;28513;-96
2022/09/29 02:44:48;;;;;;;9.15;4.80;;;;;;;18.00;92.03;97728.56;4370762;81;28606;-94
2022/09/29 02:51:07;;;;;;;;;;;;;;;17.60;92.00;97732.84;4377361;81;28493;-95
2022/09/29 02:57:20;;;;;;;7.85;5.50;;;;;;;17.43;92.45;97732.14;4364357;82;20604;-94
2022/09/29 03:03:21;;;;;;;8.73;5.05;;;;;;;17.34;90.27;97736.16;4362441;81;28501;-93
2022/09/29 03:09:23;;;;;;;8.45;4.97;;;;;;;17.34;89.52;97736.70;4383887;80;28567;-95
2022/09/29 03:15:24;;;;;;;10.28;5.03;;;;;;;17.37;88.56;97737.47;4388646;81;28528;-95
2022/09/29 03:21:26;;;;;;;8.23;4.40;;;;;;;17.26;89.33;97726.84;4388498;81;28542;-95
2022/09/29 03:27:28;;;;;;;7.40;4.47;;;;;;;17.16;89.98;97734.41;4388956;81;28535;-93
2022/09/29 03:33:29;;;;;;;8.58;4.22;;;;;;;17.05;91.06;97732.49;4389183;81;28493;-92
2022/09/29 03:39:31;;;;;;;6.80;4.65;;;;;;;17.11;91.24;97739.40;4349457;81;28571;-92
2022/09/29 03:45:32;;;;;;;7.95;4.35;;;;;;;16.96;92.18;97731.83;4347105;82;28516;-94
2022/09/29 03:51:33;;;;;;;7.03;4.65;;;;;;;16.88;93.24;97729.83;4347303;82;28454;-94
2022/09/29 03:57:35;;;;;;;7.95;4.37;;;;;;;16.74;95.17;97728.48;4348134;82;28474;-94
2022/09/29 04:03:36;;;;;;;8.63;4.92;;;;;;;16.77;95.10;97729.80;4347236;82;28454;-92
2022/09/29 04:09:37;;;;;;;8.25;4.53;;;;;;;16.77;95.08;97735.23;4405410;79;28502;-92
2022/09/29 04:15:39;;;;;;;8.80;5.00;;;;;;;16.74;95.42;97735.27;4403849;80;28452;-93
2022/09/29 04:21:40;;;;;;;8.50;4.58;;;;;;;16.82;94.43;97732.42;4403536;81;28464;-93
2022/09/29 04:35:10;;;;;;;8.93;5.37;;;;;;;16.63;94.87;97724.39;4416606;79;28535;-94
2022/09/29 04:41:12;;;;;;;8.23;5.15;;;;;;;16.84;93.36;97745.13;4406326;81;28507;-93
2022/09/29 04:47:13;;;;;;;8.05;4.72;;;;;;;16.78;93.83;97749.05;4372108;79;28546;-91
2022/09/29 04:53:14;;;;;;;8.33;4.60;;;;;;;16.60;95.27;97747.49;4395089;79;28543;-90
2022/09/29 04:59:17;;;;;;;8.98;4.90;;;;;;;16.71;95.01;97748.10;4402275;79;28529;-91
2022/09/29 05:05:20;;;;;;;8.10;4.72;;;;;;;16.87;94.17;97766.23;4402071;79;28483;-90
2022/09/29 05:11:21;;;;;;;7.58;4.17;;;;;;;16.80;93.98;97783.47;4426981;79;28509;-87
2022/09/29 05:17:23;;;;;;;6.92;4.33;;;;;;;16.78;94.86;97783.78;4397841;79;28516;-87
2022/09/29 05:23:24;;;;;;;7.20;4.55;;;;;;;16.83;95.25;97789.66;4396955;79;28541;-87
2022/09/29 05:29:25;;;;;;;7.87;4.58;;;;;;;16.94;94.51;97795.67;4411845;79;28474;-85
2022/09/29 05:35:27;;;;;;;6.72;4.47;;;;;;;16.93;91.54;97798.14;4379104;79;28567;-85
2022/09/29 05:41:28;;;;;;;8.30;4.47;;;;;;;16.63;93.42;97792.22;4373831;79;28527;-86
2022/09/29 05:47:29;;;;;;;8.30;4.67;;;;;;;16.77;91.87;97801.18;4419472;79;28561;-88
2022/09/29 05:53:32;;;;;;;7.58;4.53;;;;;;;16.69;92.10;97800.52;4381005;79;28527;-87
2022/09/29 05:59:34;;;;;;;7.17;4.67;;;;;;;17.07;91.12;97806.30;4384199;79;28498;-86
2022/09/29 06:05:39;;;;;;;7.60;4.45;;;;;;;16.93;90.76;97800.31;4381877;79;28573;-88
2022/09/29 06:11:40;;;;;;;7.90;4.47;;;;;;;16.90;92.07;97803.61;4349866;79;28503;-85
2022/09/29 06:17:42;;;;;;;7.83;4.08;;;;;;;16.89;92.65;97804.72;4358231;80;28550;-85
2022/09/29 06:23:44;;;;;;;8.98;4.80;;;;;;;17.13;90.28;97809.16;4352340;80;28565;-86
2022/09/29 06:29:45;;;;;;;10.98;5.03;;;;;;;17.08;88.11;97811.97;4374658;80;28464;-88
2022/09/29 06:42:07;;;;;;;7.62;4.80;;;;;;;17.06;90.72;97806.05;4375078;80;28558;-86
2022/09/29 06:48:10;;;;;;;9.18;4.95;;;;;;;17.17;90.87;97799.29;4383953;80;28497;-86
2022/09/29 06:54:20;;;;;;;8.58;4.83;;;;;;;17.27;90.06;97800.96;4353457;80;28493;-86
2022/09/29 07:00:22;;;;;;;7.30;4.67;;;;;;;17.39;89.22;97806.69;4372462;80;28522;-85
2022/09/29 07:06:24;;;;;;;6.45;4.35;;;;;;;17.56;89.25;97811.45;4374051;80;28470;-85
2022/09/29 07:12:25;;;;;;;7.08;4.10;;;;;;;17.77;88.21;97804.17;4375706;80;28511;-84
2022/09/29 07:18:26;;;;;;;6.05;4.08;;;;;;;17.92;86.46;97808.98;4376360;80;28553;-85
2022/09/29 07:24:33;;;;;;;6.17;4.05;;;;;;;18.10;84.22;97816.71;4373653;80;28571;-85
2022/09/29 07:30:36;;;;;;;6.15;4.20;;;;;;;18.09;83.80;97818.64;4374984;80;28458;-85
2022/09/29 07:36:37;;;;;;;5.33;3.58;;;;;;;18.00;82.08;97825.91;4376762;80;28653;-84
2022/09/29 07:42:43;;;;;;;6.30;4.10;;;;;;;17.89;83.62;97828.64;4278867;82;28447;-85
2022/09/29 07:48:42;;;;;;;6.08;3.80;;;;;;;17.88;85.05;97835.98;4286572;80;28547;-85
2022/09/29 07:54:44;;;;;;;4.97;3.67;;;;;;;17.86;86.52;97857.78;4281761;82;28480;-84
2022/09/29 08:00:47;;;;;;;5.70;3.75;;;;;;;17.84;87.74;97856.18;4281600;82;28512;-85
2022/09/29 08:06:49;;;;;;;5.35;3.40;;;;;;;18.15;85.91;97853.86;4247663;82;28463;-86
2022/09/29 08:12:50;;;;;;;4.55;3.10;;;;;;;18.50;80.99;97854.08;4284589;81;28503;-85
2022/09/29 08:18:52;;;;;;;4.97;3.25;;;;;;;18.71;79.01;97858.39;4190786;84;28555;-85
2022/09/29 08:24:53;;;;;;;5.90;3.20;;;;;;;18.73;78.07;97863.53;4251736;82;28522;-85
2022/09/29 08:30:54;;;;;;;5.05;2.67;;;;;;;18.67;76.22;97872.41;4297224;82;28540;-85
2022/09/29 08:36:56;;;;;;;4.58;2.50;;;;;;;18.70;77.05;97866.89;4357347;79;28486;-86
2022/09/29 08:43:21;;;;;;;5.87;2.10;;;;;;;18.94;74.60;97876.83;4464966;79;28978;-86
2022/09/29 08:49:34;;;;;;;4.97;2.12;;;;;;;19.09;73.59;97885.70;4446165;79;28523;-85
2022/09/29 08:56:07;;;;;;;3.80;2.25;;;;;;;19.34;72.51;97888.83;4398071;80;28505;-85
2022/09/29 09:02:41;;;;;;;4.47;2.50;;;;;;;19.63;70.40;97895.62;4423389;79;28545;-84
2022/09/29 09:09:05;;;;;;;4.45;2.10;;;;;;;19.74;70.11;97893.36;4432133;79;28535;-85
2022/09/29 09:15:53;;;;;;;2.83;1.45;;;;;;;20.03;70.09;97892.73;4410953;79;28518;-83
2022/09/29 09:22:19;;;;;;;3.40;1.62;;;;;;;20.99;66.15;97888.77;4395497;79;28523;-85
2022/09/29 09:28:38;;;;;;;3.08;1.60;;;;;;;21.24;61.48;97895.78;4403805;79;28661;-86
2022/09/29 09:34:53;;;;;;;2.95;1.75;;;;;;;21.26;60.43;97894.33;4417397;79;28468;-86
2022/09/29 09:41:00;;;;;;;2.20;2.00;;;;;;;21.83;59.42;97893.56;4426043;79;28513;-86
2022/09/29 09:47:22;;;;;;;2.98;1.60;;;;;;;21.84;60.84;97891.05;4448656;79;28493;-86
2022/09/29 09:53:32;;;;;;;2.08;1.52;;;;;;;21.84;58.74;97893.79;4388212;79;28496;-86
2022/09/29 10:00:14;;;;;;;1.60;1.50;;;;;;;21.72;59.16;97901.94;4460608;79;28495;-83
2022/09/29 10:06:17;;;;;;;2.47;1.40;;;;;;;22.11;58.88;97904.52;4439847;78;28495;-86
2022/09/29 10:12:22;;;;;;;1.85;1.35;;;;;;;21.99;57.27;97906.64;4431736;79;28498;-85
2022/09/29 10:18:35;;;;;;;1.47;0.93;;;;;;;21.76;57.39;97909.70;4422373;79;28514;-84
2022/09/29 10:24:36;;;;;;;1.70;1.10;;;;;;;21.78;54.81;97911.56;4406384;79;28501;-85
2022/09/29 10:30:37;;;;;;;3.10;1.67;;;;;;;21.45;55.65;97916.31;4375524;80;28495;-85
2022/09/29 10:36:56;;;;;;;2.40;1.22;;;;;;;21.18;55.01;97919.19;4347115;80;28520;-84
2022/09/29 10:42:57;;;;;;;4.00;2.22;;;;;;;20.19;55.66;97929.09;4433835;79;28542;-85
2022/09/29 10:49:25;;;;;;;1.85;1.20;;;;;;;19.71;57.76;97932.97;4404179;78;28513;-83
2022/09/29 10:55:33;;;;;;;4.55;1.85;;;;;;;19.66;58.29;97924.95;4370866;80;28608;-85
2022/09/29 11:01:40;;;;;;;4.95;3.45;;;;;;;19.48;59.61;97926.86;4438507;79;28496;-84
2022/09/29 11:07:47;;;;;;;3.62;2.00;;;;;;;19.25;60.12;97946.59;4392107;79;28576;-85
2022/09/29 11:13:49;;;;;;;4.67;2.85;;;;;;;19.23;60.00;97949.62;4441355;79;28547;-84
2022/09/29 11:19:54;;;;;;;5.30;2.37;;;;;;;18.29;63.97;97959.89;4435162;79;28538;-85
2022/09/29 11:26:17;;;;;;;4.62;2.52;;;;;;;18.74;62.39;97954.41;4443461;79;28540;-85
2022/09/29 11:32:28;;;;;;;8.88;5.40;;;;;;;19.91;59.77;97953.38;4347387;79;28587;-86
2022/09/29 11:38:53;;;;;;;3.87;2.30;;;;;;;20.83;57.15;97956.80;4374258;79;28520;-85
2022/09/29 11:44:59;;;;;;;4.03;2.40;;;;;;;21.30;57.58;97963.59;4400917;79;28540;-86
2022/09/29 11:51:21;;;;;;;4.75;2.80;;;;;;;21.78;55.98;97958.61;4384471;79;28509;-86
2022/09/29 11:57:58;;;;;;;5.25;2.27;;;;;;;21.64;55.00;97950.07;4356597;80;28521;-86
2022/09/29 12:04:23;;;;;;;4.30;1.52;;;;;;;21.49;56.20;97964.30;4393249;79;28498;-84
2022/09/29 12:11:00;;;;;;;1.30;1.15;;;;;;;21.35;56.80;97961.80;4377815;81;43089;-85
2022/09/29 12:17:12;;;;;;;2.98;1.10;;;;;;;20.89;57.75;97968.59;4447477;78;28468;-84
2022/09/29 12:23:18;;;;;;;2.47;1.10;;;;;;;20.72;57.66;97964.50;4425452;78;28496;-84
2022/09/29 12:29:27;;;;;;;3.22;1.20;;;;;;;20.91;57.23;97961.99;4430814;79;28547;-85
2022/09/29 12:35:40;;;;;;;2.22;1.10;;;;;;;21.36;56.50;97964.21;4413461;78;28518;-86
2022/09/29 12:41:47;;;;;;;3.55;1.00;;;;;;;21.44;56.14;97978.41;4454974;79;28502;-84
2022/09/29 12:48:03;;;;;;;1.02;0.80;;;;;;;21.73;55.08;97972.73;4486018;79;28551;-85
2022/09/29 12:54:38;;;;;;;1.72;1.00;;;;;;;21.44;54.53;97984.43;4420780;79;28532;-85
2022/09/29 13:00:44;;;;;;;1.67;1.10;;;;;;;21.95;52.97;97974.91;4469635;79;28544;-84
2022/09/29 13:07:29;;;;;;;3.05;1.05;;;;;;;21.63;54.07;97987.31;4514943;78;28510;-86
2022/09/29 13:13:45;;;;;;;2.97;1.20;;;;;;;21.78;54.59;97985.41;4404002;79;28505;-84
2022/09/29 13:20:07;;;;;;;3.95;1.20;;;;;;;21.34;56.49;97996.55;4486605;79;28449;-85
2022/09/29 13:26:48;;;;;;;3.22;1.50;;;;;;;21.32;56.57;97990.61;4440152;79;28549;-85
2022/09/29 13:32:58;;;;;;;2.60;1.42;;;;;;;21.20;56.84;97991.88;4477765;79;28429;-84
2022/09/29 13:39:00;;;;;;;4.05;1.30;;;;;;;21.05;56.16;97994.00;4482714;79;28487;-85
2022/09/29 13:45:24;;;;;;;2.90;1.60;;;;;;;20.83;57.64;98004.02;4402741;80;28549;-84
2022/09/29 13:51:49;;;;;;;2.65;1.80;;;;;;;20.77;57.39;98010.73;4413193;79;28452;-84
2022/09/29 13:57:51;;;;;;;2.72;1.80;;;;;;;20.34;58.50;97996.81;4426284;79;28525;-85
2022/09/29 14:03:54;;;;;;;4.67;1.70;;;;;;;20.11;58.51;98005.73;4422082;79;28512;-84
2022/09/29 14:09:56;;;;;;;2.40;1.70;;;;;;;19.88;58.98;98016.73;4422226;79;28519;-84
2022/09/29 14:16:31;;;;;;;2.80;1.60;;;;;;;19.62;59.79;98019.39;4422088;79;28492;-85
2022/09/29 14:22:59;;;;;;;3.72;1.65;;;;;;;19.99;59.04;98010.45;4398124;79;28499;-85
2022/09/29 14:29:02;;;;;;;2.20;1.55;;;;;;;19.99;58.73;98020.00;4349569;80;28487;-84
2022/09/29 14:35:12;;;;;;;2.65;1.45;;;;;;;19.87;58.53;98024.67;4414348;79;28507;-84
2022/09/29 14:41:24;;;;;;;2.77;1.67;;;;;;;19.99;58.07;98041.00;4430991;79;28509;-85
2022/09/29 14:54:15;;;;;;;2.22;1.60;;;;;;;19.83;59.00;98046.08;4429395;79;28579;-85
2022/09/29 15:00:24;;;;;;;1.72;1.22;;;;;;;19.66;59.57;98051.73;4441774;79;28463;-85
2022/09/29 15:06:27;;;;;;;3.75;1.40;;;;;;;19.28;60.14;98047.58;4435403;79;28554;-86
2022/09/29 15:12:34;;;;;;;2.40;1.30;;;;;;;19.33;59.68;98054.24;4423704;79;28496;-85
2022/09/29 15:19:14;;;;;;;3.65;1.85;;;;;;;19.07;60.82;98077.27;4416239;79;28619;-84
2022/09/29 15:25:29;;;;;;;4.25;1.70;;;;;;;18.75;62.54;98081.28;4455787;79;28519;-85
2022/09/29 15:31:34;;;;;;;2.65;1.42;;;;;;;19.19;61.73;98081.58;4405238;79;28985;-85
2022/09/29 15:37:51;;;;;;;3.02;1.65;;;;;;;18.29;63.17;98081.77;4409099;79;28590;-84
2022/09/29 15:44:16;;;;;;;4.87;1.72;;;;;;;18.79;63.19;98085.52;4325661;80;28541;-82
2022/09/29 15:50:24;;;;;;;6.90;1.87;;;;;;;18.70;63.63;98084.11;4333257;80;28512;-82
2022/09/29 15:56:26;;;;;;;3.87;2.20;;;;;;;18.71;63.61;98089.80;4425403;79;28549;-81
2022/09/29 16:02:37;;;;;;;5.42;2.20;;;;;;;18.45;64.77;98093.66;4447541;79;28495;-89
2022/09/29 16:08:48;;;;;;;3.45;2.00;;;;;;;18.43;65.95;98088.55;4406510;79;28489;-82
2022/09/29 16:14:56;;;;;;;4.83;2.22;;;;;;;18.24;66.48;98090.03;4353477;80;28513;-83
2022/09/29 16:21:01;;;;;;;5.10;2.30;;;;;;;18.44;66.61;98086.61;4365151;81;28509;-82
2022/09/29 16:27:03;;;;;;;3.30;2.02;;;;;;;18.38;66.71;98107.16;4308074;80;28675;-90
2022/09/29 16:33:16;;;;;;;3.90;2.02;;;;;;;18.23;65.89;98113.73;4363900;80;28533;-87
2022/09/29 16:39:22;;;;;;;3.65;2.15;;;;;;;17.92;66.76;98106.71;4381833;79;28607;-84
2022/09/29 16:45:24;;;;;;;3.83;2.12;;;;;;;18.00;67.61;98110.09;4358461;79;28488;-82
2022/09/29 16:51:26;;;;;;;4.40;2.60;;;;;;;17.95;68.10;98123.77;4350310;80;28515;-86
2022/09/29 16:57:33;;;;;;;5.80;3.58;;;;;;;17.99;68.61;98137.03;4365903;81;28526;-82
2022/09/29 17:03:41;;;;;;;6.20;3.55;;;;;;;18.05;68.17;98145.36;4377794;79;28562;-81
2022/09/29 17:09:46;;;;;;;6.22;3.52;;;;;;;17.95;68.05;98145.52;4342646;80;28536;-82
2022/09/29 17:15:51;;;;;;;5.42;3.60;;;;;;;17.88;67.83;98151.37;4332662;80;28499;-82
2022/09/29 17:21:54;;;;;;;4.37;2.90;;;;;;;17.70;67.95;98148.99;4380046;79;28564;-88
2022/09/29 17:28:14;;;;;;;7.15;3.45;;;;;;;17.54;68.40;98160.12;4347471;80;28523;-90
2022/09/29 17:34:27;;;;;;;4.95;3.25;;;;;;;17.46;69.19;98170.88;4377051;79;28520;-83
2022/09/29 17:40:52;;;;;;;7.62;3.77;;;;;;;17.60;69.35;98181.80;4351048;81;28533;-84
2022/09/29 17:46:53;;;;;;;7.15;3.47;;;;;;;17.59;68.88;98186.41;4347255;80;28550;-84
2022/09/29 17:52:57;;;;;;;6.92;3.80;;;;;;;17.56;69.20;98185.11;4382759;79;28588;-84
2022/09/29 17:59:01;;;;;;;8.50;4.40;;;;;;;17.19;72.17;98187.36;4397909;79;28571;-84
2022/09/29 18:05:02;;;;;;;8.03;5.08;;;;;;;16.84;75.84;98195.72;4385128;79;28530;-84
2022/09/29 18:11:04;;;;;;;7.45;4.15;;;;;;;16.53;80.70;98192.85;4441625;79;28547;-85
2022/09/29 18:17:07;;;;;;;8.30;4.65;;;;;;;16.41;83.15;98200.08;4397762;79;28545;-89
2022/09/29 18:23:09;;;;;;;9.08;5.45;;;;;;;16.60;83.22;98188.42;4343928;80;28470;-85
2022/09/29 18:29:17;;;;;;;8.35;5.62;;;;;;;16.32;86.32;98189.61;4405878;79;28554;-92
2022/09/29 18:35:23;;;;;;;10.40;6.17;;;;;;;16.42;86.27;98180.52;4304234;81;28505;-86
2022/09/29 18:41:26;;;;;;;9.08;5.50;;;;;;;16.31;86.85;98185.28;4345488;80;28558;-84
2022/09/29 18:47:30;;;;;;;8.75;5.37;;;;;;;16.12;87.92;98188.75;4365083;80;28538;-94
2022/09/29 18:53:35;;;;;;;9.33;5.60;;;;;;;15.72;91.07;98177.20;4410258;80;28511;-83
2022/09/29 18:59:36;;;;;;;10.03;5.72;;;;;;;15.26;95.06;98167.06;4396585;79;28481;-84
2022/09/29 19:05:41;;;;;;;8.70;5.72;;;;;;;15.66;92.42;98181.88;4402415;79;28546;-81
2022/09/29 19:11:45;;;;;;;8.95;5.80;;;;;;;15.45;93.76;98175.28;4342931;79;28621;-82
2022/09/29 19:17:48;;;;;;;9.50;5.87;;;;;;;15.27;95.64;98183.57;4368178;79;28609;-83
2022/09/29 19:23:50;;;;;;;9.35;5.72;;;;;;;15.89;91.85;98196.55;4383316;80;28619;-84
2022/09/29 19:29:55;;;;;;;12.10;6.28;;;;;;;15.97;90.22;98201.92;4406878;79;28553;-82
2022/09/29 19:36:03;;;;;;;11.78;6.80;;;;;;;16.13;88.41;98211.23;4415836;79;28506;-84
2022/09/29 19:42:07;;;;;;;9.30;6.10;;;;;;;15.84;89.49;98209.35;4309567;79;28657;-85
2022/09/29 19:48:14;;;;;;;9.88;5.45;;;;;;;15.83;89.38;98237.55;4224443;83;28595;-83
2022/09/29 19:54:19;;;;;;;7.40;4.87;;;;;;;15.77;88.74;98245.45;4223836;82;28573;-88
2022/09/29 20:00:26;;;;;;;10.25;6.53;;;;;;;15.51;89.30;98245.66;4224944;82;28651;-87
2022/09/29 20:06:27;;;;;;;8.58;5.72;;;;;;;15.47;89.37;98250.86;4221619;83;28565;-87
2022/09/29 20:12:31;;;;;;;13.22;6.37;;;;;;;15.35;88.04;98252.56;4242523;82;28530;-89
2022/09/29 20:18:38;;;;;;;12.35;7.55;;;;;;;15.50;86.75;98252.17;4365614;79;28529;-90
2022/09/29 20:32:42;;;;;;;10.10;6.20;;;;;;;15.21;90.32;98261.06;4379873;81;28564;-89
2022/09/29 20:45:43;;;;;;;11.12;7.20;;;;;;;14.95;93.71;98267.44;4167862;84;28550;-89
2022/09/29 20:59:07;;;;;;;12.87;7.70;;;;;;;14.54;94.02;98273.79;4151952;85;28545;-89
2022/09/29 21:05:12;;;;;;;14.40;9.83;;;;;;;14.95;91.87;98285.56;4085596;85;35764;-89
2022/09/29 21:18:21;;;;;;;21.37;12.80;;;;;;;14.38;99.63;98308.19;4194426;84;28478;-91
2022/09/29 21:24:23;;;;;;;20.60;13.25;;;;;;;14.66;98.99;98322.18;4301869;79;35780;-91
2022/09/29 21:37:33;;;;;;;22.95;15.58;;;;;;;15.15;99.21;98336.89;4511810;79;28519;-89
2022/09/29 21:43:36;;;;;;;23.98;16.37;;;;;;;15.05;100.00;98324.76;4504249;79;28519;-89
2022/09/29 21:49:41;;;;;;;24.30;15.40;;;;;;;14.95;100.00;98316.68;4499586;78;28568;-89
2022/09/29 21:55:43;;;;;;;21.33;14.93;;;;;;;15.02;100.00;98314.49;4465633;79;28551;-90
2022/09/29 22:01:46;;;;;;;26.48;16.12;;;;;;;14.96;100.00;98315.06;4401452;81;28494;-92
2022/09/29 22:07:47;;;;;;;24.15;16.97;;;;;;;14.91;100.00;98311.02;4354448;81;28521;-92
2022/09/29 22:13:50;;;;;;;26.55;16.70;;;;;;;15.10;100.00;98321.22;4376632;81;28521;-90
2022/09/29 22:19:52;;;;;;;26.23;16.12;;;;;;;15.11;100.00;98324.19;4376228;81;28653;-90
2022/09/29 22:25:54;;;;;;;24.32;15.32;;;;;;;15.40;100.00;98318.08;4297775;83;28539;-90
2022/09/29 22:31:55;;;;;;;20.08;13.00;;;;;;;15.39;100.00;98325.94;4348735;82;28482;-90
2022/09/29 22:37:57;;;;;;;19.17;13.28;;;;;;;15.44;100.00;98334.84;4303178;83;28486;-89
2022/09/29 22:43:59;;;;;;;21.80;13.38;;;;;;;15.58;99.20;98326.89;4340657;82;28533;-88
2022/09/29 22:50:07;;;;;;;18.82;12.82;;;;;;;15.55;99.21;98319.88;4306034;82;28556;-88
2022/09/29 22:56:15;;;;;;;20.95;12.40;;;;;;;15.44;100.00;98326.71;4309529;82;28546;-88
2022/09/29 23:02:16;;;;;;;20.17;12.58;;;;;;;15.56;100.00;98335.83;4472173;79;28523;-88
2022/09/29 23:08:20;;;;;;;25.27;16.97;;;;;;;16.11;96.61;98344.40;4409823;79;28508;-88
2022/09/29 23:14:21;;;;;;;32.40;20.27;;;;;;;16.27;95.46;98347.78;4416267;80;28515;-87
2022/09/29 23:20:23;;;;;;;34.63;23.83;;;;;;;15.82;97.96;98342.43;4374718;79;28516;-87
2022/09/29 23:26:32;;;;;;;36.03;24.35;;;;;;;15.86;99.03;98344.83;4335922;80;28562;-87
2022/09/29 23:32:34;;;;;;;33.35;21.42;;;;;;;15.46;100.00;98348.08;4398789;79;28498;-86
2022/09/29 23:45:01;;;;;;;22.30;15.18;;;;;;;15.18;100.00;98347.16;4299115;83;28579;-87
2022/09/29 23:51:09;;;;;;;21.48;15.03;;;;;;;15.37;100.00;98336.25;4445252;78;28575;-87
2022/09/29 23:57:14;;;;;;;22.02;15.15;;;;;;;15.67;100.00;98329.80;4370617;79;28493;-88
